Time;durP1;ratioP1;P1;durP2;ratioP2;P2;SDS_P1;SDS_P2;PMS_P1;PMS_P2;Temp;Humidity;BMP_temperature;BMP_pressure;BME280_temperature;BME280_humidity;BME280_pressure;Samples;Min_cycle;Max_cycle;Signal;HPM_P1;HPM_P2
2021/04/03 00:02:47;;;;;;;6.10;1.88;;;6.20;99.90;;;;;;10519749;28;20054;-49
2021/04/03 00:08:08;;;;;;;1.25;0.40;;;6.10;99.90;;;;;;10517113;28;20040;-49
2021/04/03 00:13:37;;;;;;;2.65;0.95;;;6.10;99.90;;;;;;10524552;28;20032;-49
2021/04/03 00:18:58;;;;;;;6.82;0.68;;;6.10;99.90;;;;;;10526947;28;20391;-49
2021/04/03 00:24:19;;;;;;;4.90;1.45;;;6.10;99.90;;;;;;10504131;28;20032;-49
2021/04/03 00:29:40;;;;;;;4.13;1.60;;;6.10;99.90;;;;;;10527012;28;20669;-49
2021/04/03 00:35:01;;;;;;;4.90;0.63;;;6.10;99.90;;;;;;10516421;28;20213;-49
2021/04/03 00:40:37;;;;;;;3.20;0.60;;;6.10;99.90;;;;;;10524807;28;20043;-49
2021/04/03 00:45:58;;;;;;;1.98;0.57;;;6.10;99.90;;;;;;10523750;28;20088;-49
2021/04/03 00:51:19;;;;;;;3.75;0.20;;;6.10;99.90;;;;;;10515959;28;20040;-49
2021/04/03 00:56:40;;;;;;;4.15;1.48;;;6.10;99.90;;;;;;10515317;28;20043;-49
2021/04/03 01:02:01;;;;;;;2.38;0.35;;;6.20;99.90;;;;;;10520129;28;20477;-49
2021/04/03 01:07:22;;;;;;;6.18;1.05;;;6.20;99.90;;;;;;10518067;28;20048;-49
2021/04/03 01:13:21;;;;;;;5.93;0.77;;;6.20;99.90;;;;;;10518044;28;20047;-49
2021/04/03 01:19:04;;;;;;;1.15;1.05;;;6.40;99.90;;;;;;10516944;28;20035;-49
2021/04/03 01:24:59;;;;;;;6.03;1.25;;;6.40;99.90;;;;;;10519743;28;20644;-49
2021/04/03 01:30:25;;;;;;;1.27;0.43;;;6.40;99.90;;;;;;10522190;28;20066;-49
2021/04/03 01:35:51;;;;;;;11.38;1.00;;;6.60;99.90;;;;;;10532351;28;20040;-48
2021/04/03 01:41:15;;;;;;;3.50;0.55;;;6.50;99.90;;;;;;10524528;28;20065;-49
2021/04/03 01:46:38;;;;;;;4.30;0.32;;;6.60;99.90;;;;;;10527948;28;20044;-49
2021/04/03 01:52:00;;;;;;;4.30;0.70;;;6.60;99.90;;;;;;10524597;28;20056;-49
2021/04/03 01:57:23;;;;;;;2.13;0.55;;;6.70;99.90;;;;;;10525695;28;20497;-49
2021/04/03 02:02:45;;;;;;;2.35;0.65;;;6.70;99.90;;;;;;10529355;28;20069;-49
2021/04/03 02:08:07;;;;;;;4.38;0.57;;;6.70;99.90;;;;;;10528572;27;20468;-48
2021/04/03 02:13:31;;;;;;;1.95;0.80;;;6.70;99.90;;;;;;10527741;28;20047;-49
2021/04/03 02:18:53;;;;;;;1.00;0.82;;;6.70;99.90;;;;;;10527207;28;20122;-49
2021/04/03 02:24:14;;;;;;;1.15;0.35;;;6.60;99.90;;;;;;10513887;28;20069;-49
2021/04/03 02:29:35;;;;;;;1.80;0.43;;;6.70;99.90;;;;;;10527559;28;20071;-49
2021/04/03 02:34:56;;;;;;;2.15;0.22;;;6.70;99.90;;;;;;10520492;28;20040;-49
2021/04/03 02:40:19;;;;;;;0.90;0.30;;;6.70;99.90;;;;;;10522406;28;20119;-49
2021/04/03 02:46:05;;;;;;;12.43;1.27;;;6.70;99.90;;;;;;10528097;27;20043;-49
2021/04/03 02:51:30;;;;;;;3.72;0.52;;;6.70;99.90;;;;;;10517550;28;20055;-49
2021/04/03 02:56:53;;;;;;;1.30;0.38;;;6.70;99.90;;;;;;10524495;28;20055;-50
2021/04/03 03:02:20;;;;;;;9.65;1.85;;;6.60;99.90;;;;;;10518902;28;20528;-49
2021/04/03 03:07:45;;;;;;;2.03;0.40;;;6.60;99.90;;;;;;10517703;28;20088;-49
2021/04/03 03:13:08;;;;;;;4.35;0.63;;;6.70;99.90;;;;;;10519728;27;20081;-49
2021/04/03 03:18:30;;;;;;;8.68;1.48;;;6.70;99.90;;;;;;10518359;28;20044;-49
2021/04/03 03:23:52;;;;;;;2.72;0.68;;;6.70;99.90;;;;;;10517911;28;20048;-49
2021/04/03 03:29:13;;;;;;;2.05;0.30;;;6.70;99.90;;;;;;10513498;28;20047;-48
2021/04/03 03:34:34;;;;;;;12.23;1.75;;;6.70;99.90;;;;;;10519099;28;20059;-49
2021/04/03 03:39:56;;;;;;;5.60;1.08;;;6.70;99.90;;;;;;10519602;28;20032;-48
2021/04/03 03:45:20;;;;;;;7.35;0.55;;;6.70;99.90;;;;;;10523575;28;20032;-49
2021/04/03 03:50:41;;;;;;;4.15;1.20;;;6.60;99.90;;;;;;10519803;28;20137;-48
2021/04/03 03:56:02;;;;;;;8.07;1.23;;;6.70;99.90;;;;;;10471825;28;20052;-49
2021/04/03 04:01:23;;;;;;;12.00;1.13;;;6.60;99.90;;;;;;10476042;28;20085;-49
2021/04/03 04:06:44;;;;;;;1.33;0.30;;;6.70;99.90;;;;;;10470901;28;20047;-49
2021/04/03 04:12:07;;;;;;;4.72;0.60;;;6.70;99.90;;;;;;10473251;28;20043;-48
2021/04/03 04:17:28;;;;;;;2.97;1.30;;;6.70;99.90;;;;;;10476035;28;20055;-49
2021/04/03 04:22:48;;;;;;;3.78;0.90;;;6.60;99.90;;;;;;10472670;28;20131;-49
2021/04/03 04:28:09;;;;;;;3.88;0.80;;;6.70;99.90;;;;;;10474789;28;20138;-49
2021/04/03 04:33:30;;;;;;;1.60;0.60;;;6.60;99.90;;;;;;10462980;28;21844;-49
2021/04/03 04:38:51;;;;;;;10.88;2.92;;;6.60;99.90;;;;;;10473832;28;20078;-49
2021/04/03 04:44:12;;;;;;;2.70;0.47;;;6.40;99.90;;;;;;10474179;28;20048;-49
2021/04/03 04:49:33;;;;;;;2.95;0.90;;;6.30;99.90;;;;;;10470336;28;20044;-49
2021/04/03 04:54:54;;;;;;;1.75;0.50;;;6.20;99.90;;;;;;10503675;28;20139;-49
2021/04/03 05:00:16;;;;;;;6.30;0.50;;;6.20;99.90;;;;;;10518970;28;20028;-49
2021/04/03 05:05:37;;;;;;;4.07;0.70;;;6.20;99.90;;;;;;10519370;28;20119;-49
2021/04/03 05:10:58;;;;;;;2.58;0.82;;;6.10;99.90;;;;;;10515508;28;20036;-49
2021/04/03 05:16:19;;;;;;;2.97;1.13;;;6.00;99.90;;;;;;10512342;28;20112;-48
2021/04/03 05:21:40;;;;;;;4.55;1.55;;;5.80;99.90;;;;;;10514668;28;20095;-49
2021/04/03 05:27:01;;;;;;;5.75;0.60;;;5.80;99.90;;;;;;10513243;28;20175;-49
2021/04/03 05:32:21;;;;;;;4.25;0.65;;;5.80;99.90;;;;;;10514737;28;20052;-49
2021/04/03 05:37:42;;;;;;;12.70;0.93;;;5.70;99.90;;;;;;10514326;28;20118;-49
2021/04/03 05:43:04;;;;;;;8.40;0.88;;;5.60;99.90;;;;;;10513570;28;20425;-49
2021/04/03 05:48:25;;;;;;;10.18;1.00;;;5.70;99.90;;;;;;10513239;28;20307;-49
2021/04/03 05:53:46;;;;;;;10.43;1.60;;;5.70;99.90;;;;;;10511443;28;20043;-49
2021/04/03 05:59:07;;;;;;;5.13;1.13;;;5.70;99.90;;;;;;10513665;28;20036;-49
2021/04/03 06:04:28;;;;;;;2.65;0.60;;;5.70;99.90;;;;;;10514008;28;20052;-49
2021/04/03 06:09:49;;;;;;;5.18;1.13;;;5.70;99.90;;;;;;10514621;28;20036;-49
2021/04/03 06:15:12;;;;;;;3.88;1.23;;;5.80;99.90;;;;;;10520373;28;20028;-49
2021/04/03 06:20:38;;;;;;;6.93;1.33;;;5.90;99.90;;;;;;10518619;28;20043;-49
2021/04/03 06:25:59;;;;;;;8.93;1.08;;;6.00;99.90;;;;;;10517271;28;20043;-49
2021/04/03 06:31:22;;;;;;;5.07;2.13;;;6.10;99.90;;;;;;10523185;28;20039;-48
2021/04/03 06:36:46;;;;;;;3.55;1.20;;;6.10;99.90;;;;;;10521804;28;20093;-49
2021/04/03 06:42:07;;;;;;;4.13;0.82;;;6.20;99.90;;;;;;10521682;28;20124;-49
2021/04/03 06:47:29;;;;;;;10.35;1.38;;;6.30;99.90;;;;;;10523268;28;20043;-49
2021/04/03 06:52:50;;;;;;;11.65;0.82;;;6.40;99.90;;;;;;10517934;28;20044;-49
2021/04/03 06:58:12;;;;;;;4.38;1.25;;;6.50;99.90;;;;;;10523593;28;20035;-49
2021/04/03 07:03:37;;;;;;;3.03;0.73;;;6.60;99.90;;;;;;10527132;28;20032;-49
2021/04/03 07:09:00;;;;;;;10.45;1.38;;;6.80;99.90;;;;;;10520876;28;20377;-49
2021/04/03 07:14:22;;;;;;;9.45;1.55;;;6.90;99.90;;;;;;10526001;28;20047;-49
2021/04/03 07:19:46;;;;;;;4.65;1.42;;;7.10;99.90;;;;;;10519226;28;20039;-49
2021/04/03 07:25:09;;;;;;;5.18;0.73;;;7.30;99.90;;;;;;10520884;28;20102;-49
2021/04/03 07:30:38;;;;;;;3.00;0.60;;;7.50;99.90;;;;;;10521048;28;20364;-49
2021/04/03 07:36:05;;;;;;;7.63;0.90;;;7.60;99.90;;;;;;10518620;28;20067;-48
2021/04/03 07:41:35;;;;;;;7.63;0.90;;;7.70;99.90;;;;;;10528256;28;20123;-47
2021/04/03 07:46:56;;;;;;;4.07;0.77;;;7.70;99.90;;;;;;10524841;27;21726;-48
2021/04/03 07:52:17;;;;;;;4.80;1.50;;;7.70;99.90;;;;;;10511872;28;20734;-47
2021/04/03 07:57:38;;;;;;;3.83;1.08;;;7.80;99.90;;;;;;10516497;28;20043;-47
2021/04/03 08:02:59;;;;;;;6.45;0.63;;;7.80;99.90;;;;;;10514727;28;20028;-47
2021/04/03 08:08:20;;;;;;;3.03;0.90;;;8.00;99.90;;;;;;10521884;28;20470;-47
2021/04/03 08:13:44;;;;;;;2.53;0.95;;;8.10;99.90;;;;;;10521529;28;20108;-47
2021/04/03 08:19:05;;;;;;;8.43;0.80;;;8.20;99.90;;;;;;10523316;28;20400;-47
2021/04/03 08:24:27;;;;;;;5.10;0.77;;;8.20;99.90;;;;;;10528203;28;20064;-47
2021/04/03 08:29:57;;;;;;;13.25;1.27;;;8.60;99.90;;;;;;10519582;28;20244;-47
2021/04/03 08:35:29;;;;;;;3.83;0.82;;;8.70;99.90;;;;;;10519215;28;20504;-47
2021/04/03 08:40:53;;;;;;;1.50;0.93;;;8.70;99.90;;;;;;10514364;28;20035;-48
2021/04/03 08:46:15;;;;;;;4.32;0.70;;;8.80;99.90;;;;;;10521936;28;20141;-47
2021/04/03 08:51:36;;;;;;;5.63;1.85;;;8.80;99.90;;;;;;10515449;28;20802;-47
2021/04/03 08:56:58;;;;;;;1.95;0.68;;;8.70;99.90;;;;;;10517390;28;20101;-47
2021/04/03 09:02:19;;;;;;;2.92;1.33;;;8.80;99.90;;;;;;10505479;28;20040;-47
2021/04/03 09:07:41;;;;;;;8.88;1.20;;;8.90;99.90;;;;;;10518159;28;20032;-47
2021/04/03 09:13:12;;;;;;;7.32;1.42;;;9.00;99.90;;;;;;10519499;28;20820;-47
2021/04/03 09:18:33;;;;;;;2.15;0.85;;;9.20;99.90;;;;;;10518511;28;20039;-47
2021/04/03 09:23:54;;;;;;;4.03;0.80;;;9.40;99.90;;;;;;10520015;28;20651;-47
2021/04/03 09:29:16;;;;;;;6.20;1.20;;;9.80;99.90;;;;;;10523747;28;20058;-47
2021/04/03 09:34:38;;;;;;;7.65;1.40;;;9.90;99.90;;;;;;10510295;28;20343;-47
2021/04/03 09:39:59;;;;;;;3.85;1.35;;;9.90;99.90;;;;;;10517330;28;20131;-47
2021/04/03 09:45:20;;;;;;;4.75;0.55;;;10.20;99.90;;;;;;10521571;28;20372;-47
2021/04/03 09:50:41;;;;;;;6.15;1.45;;;10.60;99.90;;;;;;10522217;28;20639;-47
2021/04/03 09:56:03;;;;;;;5.35;1.27;;;10.60;99.90;;;;;;10528970;28;20324;-47
2021/04/03 10:01:26;;;;;;;1.85;0.60;;;10.80;99.90;;;;;;10526258;28;20038;-47
2021/04/03 10:06:47;;;;;;;5.60;1.40;;;10.50;99.90;;;;;;10526221;28;20536;-48
2021/04/03 10:12:08;;;;;;;2.83;0.82;;;10.60;99.90;;;;;;10523001;28;20499;-48
2021/04/03 10:17:29;;;;;;;4.22;1.05;;;10.60;99.90;;;;;;10521517;27;20590;-48
2021/04/03 10:22:50;;;;;;;3.13;1.25;;;10.80;99.90;;;;;;10510220;28;20044;-48
2021/04/03 10:28:11;;;;;;;5.57;0.60;;;10.90;99.90;;;;;;10524088;27;20232;-48
2021/04/03 10:33:32;;;;;;;4.05;0.80;;;11.10;99.90;;;;;;10516159;28;20050;-48
2021/04/03 10:38:53;;;;;;;2.00;0.75;;;11.50;99.90;;;;;;10520426;27;20304;-48
2021/04/03 10:44:14;;;;;;;8.65;1.55;;;12.10;99.90;;;;;;10523851;28;20415;-48
2021/04/03 10:49:35;;;;;;;4.68;2.15;;;12.20;99.90;;;;;;10527482;27;20040;-48
2021/04/03 10:54:56;;;;;;;5.78;0.80;;;11.90;99.90;;;;;;10526130;28;20452;-48
2021/04/03 11:00:18;;;;;;;4.28;0.50;;;11.80;99.90;;;;;;10504907;28;20222;-49
2021/04/03 11:05:39;;;;;;;2.10;1.05;;;12.50;99.90;;;;;;10486022;28;20470;-48
2021/04/03 11:11:00;;;;;;;2.33;1.08;;;13.30;99.90;;;;;;10502605;28;20036;-48
2021/04/03 11:16:21;;;;;;;1.02;0.47;;;13.60;99.90;;;;;;10508603;27;20039;-48
2021/04/03 11:21:42;;;;;;;3.15;1.02;;;13.90;99.90;;;;;;10516698;28;20360;-47
2021/04/03 11:27:04;;;;;;;8.50;1.42;;;14.40;99.40;;;;;;10511668;28;20365;-47
2021/04/03 11:32:25;;;;;;;3.33;1.05;;;14.30;99.90;;;;;;10510258;28;20499;-47
2021/04/03 11:37:46;;;;;;;4.35;1.02;;;15.00;99.00;;;;;;10507159;28;20048;-47
2021/04/03 11:43:07;;;;;;;2.72;0.57;;;14.80;98.80;;;;;;10512642;27;20067;-47
2021/04/03 11:48:28;;;;;;;9.02;1.48;;;14.40;97.10;;;;;;10510085;28;20048;-47
2021/04/03 11:53:50;;;;;;;3.50;1.42;;;14.70;98.70;;;;;;10513543;28;20054;-47
2021/04/03 11:59:11;;;;;;;3.45;0.73;;;15.50;95.20;;;;;;10513968;28;20568;-47
2021/04/03 12:04:32;;;;;;;7.03;0.98;;;15.40;96.40;;;;;;10513295;28;20413;-47
2021/04/03 12:09:53;;;;;;;4.03;1.00;;;15.70;94.30;;;;;;10510271;28;20036;-47
2021/04/03 12:15:15;;;;;;;4.07;0.75;;;15.20;95.60;;;;;;10512668;28;20032;-47
2021/04/03 12:20:36;;;;;;;7.93;1.50;;;15.30;96.80;;;;;;10512183;28;20036;-47
2021/04/03 12:25:57;;;;;;;14.40;1.70;;;15.60;95.20;;;;;;10511742;28;20314;-47
2021/04/03 12:31:18;;;;;;;6.90;1.73;;;15.80;95.80;;;;;;10510108;28;20044;-47
2021/04/03 12:36:39;;;;;;;2.08;0.70;;;17.00;90.60;;;;;;10512955;28;20036;-48
2021/04/03 12:42:00;;;;;;;7.55;1.50;;;17.50;81.20;;;;;;10495328;28;20379;-48
2021/04/03 12:47:21;;;;;;;3.03;0.95;;;16.90;81.90;;;;;;10485884;28;20079;-48
2021/04/03 12:52:42;;;;;;;5.97;0.60;;;17.30;81.20;;;;;;10514731;28;20142;-48
2021/04/03 12:58:03;;;;;;;5.00;0.88;;;17.20;81.60;;;;;;10513208;28;20477;-48
2021/04/03 13:03:24;;;;;;;3.95;0.98;;;17.10;81.40;;;;;;10509288;28;20042;-47
2021/04/03 13:08:46;;;;;;;4.82;1.67;;;17.50;81.10;;;;;;10515857;28;20038;-47
2021/04/03 13:14:07;;;;;;;3.55;1.25;;;17.30;81.20;;;;;;10507329;28;20043;-47
2021/04/03 13:19:28;;;;;;;3.92;0.88;;;17.60;78.00;;;;;;10510860;28;20032;-47
2021/04/03 13:24:49;;;;;;;5.28;1.42;;;17.80;72.20;;;;;;10513050;28;20039;-47
2021/04/03 13:30:10;;;;;;;4.32;1.52;;;16.60;82.60;;;;;;10516351;28;20035;-47
2021/04/03 13:35:31;;;;;;;2.47;0.80;;;15.40;90.80;;;;;;10519681;28;20220;-47
2021/04/03 13:40:52;;;;;;;1.50;0.82;;;16.30;86.30;;;;;;10511263;28;20035;-47
2021/04/03 13:46:13;;;;;;;6.43;0.82;;;16.30;84.50;;;;;;10514924;28;20054;-47
2021/04/03 13:51:34;;;;;;;7.07;0.88;;;17.00;84.20;;;;;;10503481;28;20048;-47
2021/04/03 13:56:55;;;;;;;3.47;1.35;;;17.10;79.10;;;;;;10521741;28;20051;-47
2021/04/03 14:02:16;;;;;;;4.90;0.63;;;16.60;83.00;;;;;;10503122;28;20048;-47
2021/04/03 14:07:37;;;;;;;2.70;0.60;;;17.10;82.40;;;;;;10520251;28;20032;-48
2021/04/03 14:12:59;;;;;;;2.67;0.90;;;16.70;83.00;;;;;;10508312;28;20414;-47
2021/04/03 14:18:19;;;;;;;2.58;0.80;;;15.40;88.40;;;;;;10520440;28;24283;-47
2021/04/03 14:23:40;;;;;;;3.67;0.77;;;14.30;95.10;;;;;;10512203;28;20036;-47
2021/04/03 14:29:02;;;;;;;8.70;1.10;;;13.20;99.90;;;;;;10496867;28;20297;-46
2021/04/03 14:34:23;;;;;;;4.30;0.93;;;12.70;99.90;;;;;;10515244;28;20533;-46
2021/04/03 14:39:44;;;;;;;5.53;1.63;;;12.60;99.90;;;;;;10513449;28;20032;-47
2021/04/03 14:45:05;;;;;;;3.58;0.63;;;12.30;99.90;;;;;;10515622;27;20039;-46
2021/04/03 14:50:26;;;;;;;1.45;0.60;;;12.20;99.90;;;;;;10514010;28;20062;-46
2021/04/03 14:55:47;;;;;;;6.00;1.38;;;12.30;99.90;;;;;;10513865;28;20050;-46
2021/04/03 15:01:09;;;;;;;2.53;0.63;;;12.60;99.90;;;;;;10518942;28;20032;-46
2021/04/03 15:06:29;;;;;;;3.30;0.93;;;12.70;99.90;;;;;;10512640;28;20036;-46
2021/04/03 15:11:51;;;;;;;2.75;0.95;;;12.20;99.90;;;;;;10519311;27;20070;-46
2021/04/03 15:17:12;;;;;;;2.50;0.50;;;11.60;99.90;;;;;;10509008;28;20044;-46
2021/04/03 15:22:33;;;;;;;7.35;1.85;;;11.20;99.90;;;;;;10515306;28;20465;-46
2021/04/03 15:27:53;;;;;;;7.20;0.82;;;11.30;99.90;;;;;;10520348;28;20131;-47
2021/04/03 15:33:14;;;;;;;4.35;0.77;;;11.20;99.90;;;;;;10524159;28;20116;-46
2021/04/03 15:38:35;;;;;;;3.03;0.77;;;10.80;99.90;;;;;;10521396;28;20039;-46
2021/04/03 15:43:56;;;;;;;12.68;1.50;;;10.70;99.90;;;;;;10519784;28;20036;-46
2021/04/03 15:49:17;;;;;;;3.65;1.35;;;10.50;99.90;;;;;;10528946;28;20581;-46
2021/04/03 15:54:39;;;;;;;6.78;1.00;;;10.50;99.90;;;;;;10499622;28;20044;-46
2021/04/03 16:00:00;;;;;;;2.53;0.75;;;10.40;99.90;;;;;;10478944;28;20036;-46
2021/04/03 16:05:21;;;;;;;6.70;1.25;;;10.20;99.90;;;;;;10474418;28;20036;-46
2021/04/03 16:10:42;;;;;;;9.77;1.23;;;10.10;99.90;;;;;;10474389;28;20036;-46
2021/04/03 16:16:03;;;;;;;2.85;0.73;;;10.00;99.90;;;;;;10457731;28;20163;-46
2021/04/03 16:21:24;;;;;;;4.18;1.55;;;9.90;99.90;;;;;;10464544;28;20074;-46
2021/04/03 16:26:45;;;;;;;1.42;0.45;;;9.80;99.90;;;;;;10473143;28;20043;-47
2021/04/03 16:32:07;;;;;;;2.17;0.98;;;9.70;99.90;;;;;;10468887;28;20067;-46
2021/04/03 16:37:28;;;;;;;2.20;0.95;;;9.60;99.90;;;;;;10468517;28;20045;-46
2021/04/03 16:42:49;;;;;;;4.68;0.90;;;9.40;99.90;;;;;;10466348;28;20043;-46
2021/04/03 16:48:10;;;;;;;5.93;0.40;;;9.30;99.90;;;;;;10465647;28;20123;-46
2021/04/03 16:53:31;;;;;;;5.10;0.82;;;9.20;99.90;;;;;;10476748;28;20045;-46
2021/04/03 16:58:52;;;;;;;3.78;0.68;;;9.20;99.90;;;;;;10464663;28;20036;-46
2021/04/03 17:04:13;;;;;;;3.10;0.47;;;9.10;99.90;;;;;;10473336;28;20147;-46
2021/04/03 17:09:34;;;;;;;3.58;1.02;;;9.00;99.90;;;;;;10468087;28;20518;-46
2021/04/03 17:14:55;;;;;;;2.95;1.45;;;8.80;99.90;;;;;;10467187;28;20039;-46
2021/04/03 17:20:17;;;;;;;4.65;1.13;;;8.70;99.90;;;;;;10471966;28;20036;-46
2021/04/03 17:25:38;;;;;;;2.95;0.73;;;8.60;99.90;;;;;;10473195;28;20035;-46
2021/04/03 17:31:00;;;;;;;1.30;0.77;;;8.60;99.90;;;;;;10472592;28;20121;-46
2021/04/03 17:36:21;;;;;;;1.67;0.63;;;8.50;99.90;;;;;;10467106;28;20036;-46
2021/04/03 17:41:42;;;;;;;1.85;1.10;;;8.50;99.90;;;;;;10451077;28;20114;-46
2021/04/03 17:47:04;;;;;;;1.58;0.65;;;8.40;99.90;;;;;;10465842;28;20058;-46
2021/04/03 17:52:25;;;;;;;3.50;0.52;;;8.40;99.90;;;;;;10466368;28;20056;-46
2021/04/03 17:57:47;;;;;;;1.23;0.50;;;8.30;99.90;;;;;;10466261;28;20136;-46
2021/04/03 18:03:08;;;;;;;6.00;1.92;;;8.20;99.90;;;;;;10463000;28;20124;-46
2021/04/03 18:08:29;;;;;;;2.75;0.95;;;8.10;99.90;;;;;;10473330;28;20523;-46
2021/04/03 18:13:50;;;;;;;9.85;0.77;;;8.10;99.90;;;;;;10472602;28;20048;-46
2021/04/03 18:19:11;;;;;;;2.47;0.93;;;8.10;99.90;;;;;;10427868;28;20024;-47
2021/04/03 18:24:32;;;;;;;2.78;1.00;;;8.00;99.90;;;;;;10468627;28;20082;-46
2021/04/03 18:29:53;;;;;;;14.60;3.28;;;8.10;99.90;;;;;;10474637;28;20043;-46
2021/04/03 18:35:15;;;;;;;2.28;0.65;;;8.00;99.90;;;;;;10470582;28;20079;-46
2021/04/03 18:40:37;;;;;;;8.43;1.15;;;7.90;99.90;;;;;;10470854;28;20032;-46
2021/04/03 18:45:58;;;;;;;2.38;0.80;;;7.90;99.90;;;;;;10467685;28;20032;-46
2021/04/03 18:51:19;;;;;;;2.50;0.90;;;7.70;99.90;;;;;;10473394;28;20044;-46
2021/04/03 18:56:41;;;;;;;1.17;0.50;;;7.70;99.90;;;;;;10514976;27;20047;-46
2021/04/03 19:02:02;;;;;;;7.40;0.93;;;7.70;99.90;;;;;;10509115;27;20509;-46
2021/04/03 19:07:24;;;;;;;6.63;0.88;;;7.70;99.90;;;;;;10508329;27;20024;-46
2021/04/03 19:12:45;;;;;;;2.63;0.57;;;7.70;99.90;;;;;;10505448;27;20040;-46
2021/04/03 19:18:07;;;;;;;5.00;0.60;;;7.70;99.90;;;;;;10499365;27;20574;-46
2021/04/03 19:23:28;;;;;;;3.85;1.85;;;7.70;99.90;;;;;;10497563;28;20040;-46
2021/04/03 19:28:50;;;;;;;1.58;0.73;;;7.60;99.90;;;;;;10507584;27;20040;-46
2021/04/03 19:34:13;;;;;;;5.45;1.05;;;7.60;99.90;;;;;;10494913;27;20044;-46
2021/04/03 19:39:34;;;;;;;3.83;0.63;;;7.50;99.90;;;;;;10496053;27;20506;-46
2021/04/03 19:44:55;;;;;;;3.08;0.75;;;7.50;99.90;;;;;;10496613;27;20032;-46
2021/04/03 19:50:16;;;;;;;6.30;1.38;;;7.50;99.90;;;;;;10482008;28;20119;-46
2021/04/03 19:55:36;;;;;;;1.92;0.90;;;7.50;99.90;;;;;;10492768;28;20220;-46
2021/04/03 20:00:58;;;;;;;2.05;0.65;;;7.50;99.90;;;;;;10494761;27;20040;-46
2021/04/03 20:06:19;;;;;;;0.28;0.10;;;7.40;99.90;;;;;;10485513;27;20028;-46
2021/04/03 20:11:40;;;;;;;2.03;0.65;;;7.40;99.90;;;;;;10494904;28;20040;-46
2021/04/03 20:17:01;;;;;;;2.05;0.75;;;7.30;99.90;;;;;;10496456;28;20043;-46
2021/04/03 20:22:22;;;;;;;3.25;1.38;;;7.30;99.90;;;;;;10494167;28;20746;-46
2021/04/03 20:27:44;;;;;;;9.77;0.50;;;7.30;99.90;;;;;;10496742;28;20040;-46
2021/04/03 20:33:05;;;;;;;3.20;0.43;;;7.30;99.90;;;;;;10497320;28;20045;-46
2021/04/03 20:38:26;;;;;;;1.33;0.63;;;7.40;99.90;;;;;;10499618;28;20036;-46
2021/04/03 20:43:47;;;;;;;1.95;0.90;;;7.30;99.90;;;;;;10497620;27;20036;-47
2021/04/03 20:49:08;;;;;;;2.38;0.88;;;7.10;99.90;;;;;;10498732;27;20251;-46
2021/04/03 20:54:29;;;;;;;3.47;0.60;;;7.10;99.90;;;;;;10488920;28;20033;-46
2021/04/03 20:59:50;;;;;;;2.35;0.73;;;7.10;99.90;;;;;;10450306;28;20029;-46
2021/04/03 21:05:11;;;;;;;1.85;1.08;;;7.20;99.90;;;;;;10466950;28;20044;-46
2021/04/03 21:10:33;;;;;;;2.55;0.98;;;7.10;99.90;;;;;;10455107;28;20048;-46
2021/04/03 21:15:54;;;;;;;1.70;0.80;;;7.10;99.90;;;;;;10466989;28;20032;-46
2021/04/03 21:21:15;;;;;;;6.55;1.13;;;7.10;99.90;;;;;;10466736;28;20043;-46
2021/04/03 21:26:37;;;;;;;4.30;0.63;;;7.10;99.90;;;;;;10467385;28;20075;-46
2021/04/03 21:31:58;;;;;;;1.48;0.57;;;7.00;99.90;;;;;;10471861;28;20972;-46
2021/04/03 21:37:19;;;;;;;1.40;0.68;;;7.00;99.90;;;;;;10466892;28;20028;-46
2021/04/03 21:42:40;;;;;;;4.05;1.02;;;7.00;99.90;;;;;;10475959;28;20036;-46
2021/04/03 21:48:01;;;;;;;3.90;0.60;;;7.00;99.90;;;;;;10482209;28;20039;-46
2021/04/03 21:53:22;;;;;;;4.68;0.50;;;7.00;99.90;;;;;;10469484;28;20044;-47
2021/04/03 21:58:43;;;;;;;2.83;1.10;;;7.00;99.90;;;;;;10520812;28;20035;-47
2021/04/03 22:04:04;;;;;;;2.58;0.90;;;7.00;99.90;;;;;;10521383;28;20046;-46
2021/04/03 22:09:25;;;;;;;2.97;0.80;;;7.00;99.90;;;;;;10518344;28;20050;-46
2021/04/03 22:14:46;;;;;;;1.10;0.68;;;7.00;99.90;;;;;;10522733;28;20039;-46
2021/04/03 22:20:07;;;;;;;2.35;0.60;;;7.10;99.90;;;;;;10521815;28;20320;-46
2021/04/03 22:25:28;;;;;;;2.67;1.10;;;7.10;99.90;;;;;;10520078;28;20050;-46
2021/04/03 22:30:49;;;;;;;2.75;0.47;;;7.10;99.90;;;;;;10519374;28;20036;-46
2021/04/03 22:36:11;;;;;;;2.17;0.98;;;7.00;99.90;;;;;;10512130;28;20032;-46
2021/04/03 22:41:32;;;;;;;0.82;0.35;;;7.00;99.90;;;;;;10521537;28;20032;-46
2021/04/03 22:46:57;;;;;;;5.95;0.98;;;7.00;99.90;;;;;;10508999;28;20115;-46
2021/04/03 22:52:18;;;;;;;2.00;0.80;;;7.10;99.90;;;;;;10517303;28;20052;-46
2021/04/03 22:57:40;;;;;;;6.28;0.70;;;7.10;99.90;;;;;;10518131;28;20281;-46
2021/04/03 23:03:02;;;;;;;2.63;0.40;;;7.00;99.90;;;;;;10518394;28;20036;-46
2021/04/03 23:08:23;;;;;;;3.88;0.77;;;7.10;99.90;;;;;;10517670;28;20029;-46
2021/04/03 23:13:44;;;;;;;1.20;0.40;;;7.00;99.90;;;;;;10521285;28;20460;-46
2021/04/03 23:19:05;;;;;;;1.10;0.38;;;7.00;99.90;;;;;;10518749;28;20032;-46
2021/04/03 23:24:26;;;;;;;1.15;0.28;;;7.00;99.90;;;;;;10518634;28;20038;-46
2021/04/03 23:29:47;;;;;;;5.03;0.70;;;7.00;99.90;;;;;;10519738;28;20040;-46
2021/04/03 23:35:08;;;;;;;2.20;0.60;;;7.00;99.90;;;;;;10504721;28;20371;-46
2021/04/03 23:40:29;;;;;;;2.55;0.63;;;6.90;99.90;;;;;;10515513;28;20632;-46
2021/04/03 23:45:50;;;;;;;0.90;0.20;;;6.80;99.90;;;;;;10518232;28;20028;-46
2021/04/03 23:51:11;;;;;;;1.30;0.45;;;6.80;99.90;;;;;;10513429;28;20065;-46
2021/04/03 23:56:32;;;;;;;8.23;1.58;;;6.80;99.90;;;;;;10519012;28;20252;-46
